createdAt,value
2018-10-21T00:04:30.538Z,99.60
2018-10-21T00:09:35.460Z,99.60
2018-10-21T00:14:40.212Z,99.60
2018-10-21T00:19:45.284Z,99.60
2018-10-21T00:24:49.675Z,99.60
2018-10-21T00:29:54.150Z,99.60
2018-10-21T00:34:58.515Z,99.60
2018-10-21T00:40:03.079Z,99.60
2018-10-21T00:45:09.510Z,99.60
2018-10-21T00:50:14.212Z,99.60
2018-10-21T00:55:18.596Z,99.60
2018-10-21T01:00:23.798Z,99.60
2018-10-21T01:05:29.059Z,99.60
2018-10-21T01:10:33.344Z,99.60
2018-10-21T01:15:37.779Z,99.60
2018-10-21T01:20:42.855Z,99.60
2018-10-21T01:25:48.427Z,99.60
2018-10-21T01:30:53.478Z,99.60
2018-10-21T01:35:58.274Z,99.60
2018-10-21T01:41:02.912Z,99.60
2018-10-21T01:46:07.440Z,99.60
2018-10-21T01:51:12.571Z,99.60
2018-10-21T01:56:16.970Z,99.60
2018-10-21T02:01:21.377Z,99.60
2018-10-21T02:06:25.615Z,99.60
2018-10-21T02:11:33.164Z,99.60
2018-10-21T02:16:37.541Z,99.60
2018-10-21T02:21:42.086Z,99.60
2018-10-21T02:26:46.965Z,99.60
2018-10-21T02:31:51.456Z,99.60
2018-10-21T02:36:56.186Z,99.60
2018-10-21T02:42:00.820Z,99.60
2018-10-21T02:47:05.577Z,99.60
2018-10-21T02:52:11.194Z,99.60
2018-10-21T02:57:16.446Z,99.60
2018-10-21T03:02:20.938Z,99.60
2018-10-21T03:07:25.377Z,99.60
2018-10-21T03:12:29.740Z,99.60
2018-10-21T03:17:34.187Z,99.60
2018-10-21T03:22:38.764Z,99.60
2018-10-21T03:27:43.190Z,99.60
2018-10-21T03:32:47.608Z,99.60
2018-10-21T03:37:52.889Z,99.60
2018-10-21T03:42:57.418Z,99.60
2018-10-21T03:48:01.917Z,99.60
2018-10-21T03:53:06.627Z,99.60
2018-10-21T03:58:11.075Z,99.60
2018-10-21T04:03:15.582Z,99.60
2018-10-21T04:08:19.945Z,99.60
2018-10-21T04:13:24.641Z,99.60
2018-10-21T04:18:29.154Z,99.60
2018-10-21T04:23:33.996Z,99.60
2018-10-21T04:28:40.053Z,99.60
2018-10-21T04:33:45.616Z,99.60
2018-10-21T04:40:03.779Z,99.60
2018-10-21T04:45:08.733Z,99.60
2018-10-21T04:50:13.464Z,99.60
2018-10-21T04:55:17.916Z,99.60
2018-10-21T05:00:22.663Z,99.60
2018-10-21T05:05:28.029Z,99.60
2018-10-21T05:10:33.853Z,99.60
2018-10-21T05:15:39.386Z,99.60
2018-10-21T05:20:44.411Z,99.60
2018-10-21T05:25:48.690Z,99.60
2018-10-21T05:30:53.643Z,99.60
2018-10-21T05:35:58.313Z,99.60
2018-10-21T05:41:02.943Z,99.60
2018-10-21T05:46:07.605Z,99.60
2018-10-21T05:51:11.955Z,99.60
2018-10-21T05:56:16.530Z,99.60
2018-10-21T06:01:20.972Z,99.60
2018-10-21T06:06:25.717Z,99.60
2018-10-21T06:11:30.576Z,99.60
2018-10-21T06:16:45.635Z,99.60
2018-10-21T06:21:50.219Z,99.60
2018-10-21T06:26:54.959Z,99.60
2018-10-21T06:32:00.073Z,99.60
2018-10-21T06:37:05.455Z,99.60
2018-10-21T06:42:09.958Z,99.60
2018-10-21T06:47:14.523Z,99.60
2018-10-21T06:52:19.259Z,99.60
2018-10-21T06:57:23.940Z,99.60
2018-10-21T07:02:28.454Z,99.60
2018-10-21T07:07:32.877Z,99.60
2018-10-21T07:12:37.289Z,99.60
2018-10-21T07:17:42.250Z,99.60
2018-10-21T07:22:46.653Z,99.60
2018-10-21T07:27:51.210Z,99.60
2018-10-21T07:32:55.829Z,99.60
2018-10-21T07:38:06.715Z,99.60
2018-10-21T07:43:11.036Z,99.60
2018-10-21T07:48:15.728Z,99.60
2018-10-21T07:53:20.264Z,99.60
2018-10-21T07:58:25.355Z,99.60
2018-10-21T08:03:30.340Z,99.60
2018-10-21T08:08:35.409Z,99.60
2018-10-21T08:13:40.479Z,99.60
2018-10-21T08:18:45.461Z,99.60
2018-10-21T08:23:50.093Z,99.60
2018-10-21T08:28:54.685Z,99.60
2018-10-21T08:33:59.277Z,99.60
2018-10-21T08:39:03.747Z,99.60
2018-10-21T08:44:08.166Z,99.60
2018-10-21T08:49:12.672Z,99.60
2018-10-21T08:54:17.015Z,99.60
2018-10-21T08:59:22.172Z,99.60
2018-10-21T09:04:27.372Z,99.60
2018-10-21T09:09:31.761Z,99.60
2018-10-21T09:14:36.528Z,99.60
2018-10-21T09:19:41.044Z,99.60
2018-10-21T09:24:45.459Z,99.60
2018-10-21T09:29:49.883Z,99.10
2018-10-21T09:34:54.424Z,99.00
2018-10-21T09:39:58.855Z,98.50
2018-10-21T09:45:03.705Z,97.60
2018-10-21T09:50:08.387Z,97.00
2018-10-21T09:55:19.263Z,96.50
2018-10-21T10:00:29.402Z,93.90
2018-10-21T10:05:33.918Z,92.30
2018-10-21T10:10:45.359Z,91.90
2018-10-21T10:15:49.936Z,91.30
2018-10-21T10:20:54.310Z,89.40
2018-10-21T10:25:59.606Z,89.80
2018-10-21T10:31:04.785Z,88.30
2018-10-21T10:36:09.172Z,82.20
2018-10-21T10:41:14.204Z,77.20
2018-10-21T10:46:18.552Z,79.40
2018-10-21T10:51:23.061Z,78.10
2018-10-21T10:56:27.636Z,78.30
2018-10-21T11:01:33.015Z,76.80
2018-10-21T11:06:39.017Z,76.10
2018-10-21T11:11:43.511Z,77.50
2018-10-21T11:16:47.907Z,77.70
2018-10-21T11:21:52.554Z,74.00
2018-10-21T11:26:58.182Z,73.50
2018-10-21T11:32:02.727Z,72.20
2018-10-21T11:37:07.493Z,70.60
2018-10-21T11:42:11.915Z,71.90
2018-10-21T11:47:16.850Z,69.80
2018-10-21T11:52:21.579Z,69.20
2018-10-21T11:57:25.917Z,68.50
2018-10-21T12:02:30.315Z,69.70
2018-10-21T12:07:35.120Z,70.30
2018-10-21T12:12:40.633Z,69.60
2018-10-21T12:17:45.131Z,70.10
2018-10-21T12:22:49.731Z,70.30
2018-10-21T12:27:55.256Z,70.10
2018-10-21T12:32:59.931Z,71.60
2018-10-21T12:38:04.704Z,74.60
2018-10-21T12:43:09.256Z,75.70
2018-10-21T12:48:13.992Z,79.50
2018-10-21T12:53:18.544Z,79.40
2018-10-21T12:58:22.905Z,81.80
2018-10-21T13:03:27.375Z,81.90
2018-10-21T13:08:31.884Z,83.90
2018-10-21T13:13:36.408Z,84.50
2018-10-21T13:18:40.768Z,84.30
2018-10-21T13:23:45.898Z,84.70
2018-10-21T13:28:50.401Z,83.10
2018-10-21T13:33:55.498Z,84.60
2018-10-21T13:39:00.100Z,83.70
2018-10-21T13:44:05.517Z,83.40
2018-10-21T13:49:10.655Z,84.40
2018-10-21T13:54:14.958Z,84.60
2018-10-21T13:59:19.904Z,84.70
2018-10-21T14:04:24.854Z,85.20
2018-10-21T14:09:29.286Z,84.60
2018-10-21T14:14:34.314Z,84.90
2018-10-21T14:19:38.866Z,85.40
2018-10-21T14:24:43.482Z,84.80
2018-10-21T14:29:48.449Z,85.50
2018-10-21T14:34:53.611Z,86.10
2018-10-21T14:39:58.079Z,85.60
2018-10-21T14:45:02.745Z,85.80
2018-10-21T14:50:07.641Z,85.20
2018-10-21T14:55:12.028Z,85.50
2018-10-21T15:00:16.651Z,84.90
2018-10-21T15:05:21.964Z,85.80
2018-10-21T15:10:26.583Z,85.20
2018-10-21T15:15:31.226Z,86.10
2018-10-21T15:20:35.507Z,85.70
2018-10-21T15:25:40.906Z,85.70
2018-10-21T15:30:45.365Z,87.10
2018-10-21T15:36:02.603Z,86.20
2018-10-21T15:41:07.419Z,86.50
2018-10-21T15:46:12.038Z,87.40
2018-10-21T15:51:16.593Z,88.60
2018-10-21T15:56:22.004Z,89.00
2018-10-21T16:01:26.366Z,89.10
2018-10-21T16:06:30.719Z,89.00
2018-10-21T16:11:35.767Z,89.20
2018-10-21T16:16:40.336Z,89.80
2018-10-21T16:21:45.478Z,90.60
2018-10-21T16:26:50.415Z,91.10
2018-10-21T16:31:55.019Z,91.50
2018-10-21T16:36:59.529Z,91.50
2018-10-21T16:42:04.053Z,92.00
2018-10-21T16:52:59.642Z,92.60
2018-10-21T16:58:04.166Z,92.90
2018-10-21T17:03:08.557Z,93.50
2018-10-21T17:08:14.970Z,94.00
2018-10-21T17:13:20.520Z,94.40
2018-10-21T17:18:25.097Z,94.70
2018-10-21T17:23:30.063Z,94.60
2018-10-21T17:28:34.598Z,94.60
2018-10-21T17:33:39.443Z,94.70
2018-10-21T17:38:44.672Z,95.30
2018-10-21T17:43:49.275Z,95.40
2018-10-21T17:48:54.174Z,95.50
2018-10-21T17:53:59.254Z,95.60
2018-10-21T17:59:04.069Z,95.20
2018-10-21T18:04:09.940Z,94.90
2018-10-21T18:09:20.658Z,93.70
2018-10-21T18:14:25.927Z,93.20
2018-10-21T18:19:46.764Z,92.90
2018-10-21T18:24:52.340Z,92.90
2018-10-21T18:29:57.406Z,92.80
2018-10-21T18:35:01.862Z,92.80
2018-10-21T18:40:07.703Z,92.30
2018-10-21T18:45:14.637Z,92.60
2018-10-21T18:50:19.151Z,92.20
2018-10-21T18:55:23.779Z,92.60
2018-10-21T19:00:28.636Z,92.30
2018-10-21T19:05:33.635Z,91.90
2018-10-21T19:10:58.113Z,92.10
2018-10-21T19:16:03.075Z,92.20
2018-10-21T19:21:09.359Z,92.80
2018-10-21T19:26:14.055Z,92.50
2018-10-21T19:31:18.697Z,92.50
2018-10-21T19:36:23.918Z,92.80
2018-10-21T19:41:28.576Z,93.00
2018-10-21T19:46:34.825Z,93.30
2018-10-21T19:51:39.330Z,93.20
2018-10-21T19:56:44.007Z,93.80
2018-10-21T20:01:49.764Z,93.70
2018-10-21T20:06:55.417Z,93.60
2018-10-21T20:12:00.383Z,93.70
2018-10-21T20:17:05.687Z,93.70
2018-10-21T20:22:12.033Z,93.90
2018-10-21T20:27:17.485Z,93.60
2018-10-21T20:32:23.040Z,93.80
2018-10-21T20:37:27.490Z,93.80
2018-10-21T20:42:32.465Z,94.20
2018-10-21T20:47:37.442Z,94.30
2018-10-21T20:52:42.403Z,94.60
2018-10-21T20:57:47.098Z,94.60
2018-10-21T21:02:51.937Z,94.70
2018-10-21T21:07:56.561Z,94.90
2018-10-21T21:13:02.728Z,94.90
2018-10-21T21:18:12.807Z,95.10
2018-10-21T21:23:19.141Z,95.00
2018-10-21T21:28:23.686Z,95.20
2018-10-21T21:33:28.310Z,95.60
2018-10-21T21:38:32.589Z,95.90
2018-10-21T21:43:37.017Z,96.40
2018-10-21T21:48:41.635Z,96.50
2018-10-21T21:53:46.572Z,96.60
2018-10-21T21:58:51.303Z,96.30
2018-10-21T22:03:55.793Z,96.60
2018-10-21T22:09:00.989Z,96.90
2018-10-21T22:14:06.147Z,97.30
2018-10-21T22:19:10.796Z,97.40
2018-10-21T22:24:15.341Z,97.60
2018-10-21T22:29:20.143Z,97.60
2018-10-21T22:34:24.800Z,97.40
2018-10-21T22:39:29.848Z,97.60
2018-10-21T22:44:34.499Z,98.00
2018-10-21T22:49:39.056Z,98.30
2018-10-21T22:54:43.676Z,98.40
2018-10-21T23:07:11.269Z,98.70
2018-10-21T23:12:15.681Z,98.90
2018-10-21T23:17:27.292Z,98.70
2018-10-21T23:22:32.436Z,99.00
2018-10-21T23:27:37.664Z,99.20
2018-10-21T23:32:42.334Z,99.40
2018-10-21T23:37:46.906Z,99.60
2018-10-21T23:42:51.947Z,99.60
2018-10-21T23:47:56.554Z,99.60
2018-10-21T23:53:01.002Z,99.60
2018-10-21T23:58:05.522Z,99.60
